createdAt,value
2022-09-13T00:02:10.556Z,8.52
2022-09-13T00:04:37.880Z,8.38
2022-09-13T00:07:05.066Z,8.60
2022-09-13T00:09:32.453Z,8.70
2022-09-13T00:11:59.680Z,8.35
2022-09-13T00:14:26.898Z,9.13
2022-09-13T00:16:54.141Z,8.60
2022-09-13T00:19:21.384Z,8.85
2022-09-13T00:21:48.702Z,8.60
2022-09-13T00:24:15.925Z,8.93
2022-09-13T00:26:43.219Z,8.38
2022-09-13T00:29:10.786Z,8.38
2022-09-13T00:31:38.161Z,8.35
2022-09-13T00:34:05.437Z,8.68
2022-09-13T00:36:32.717Z,8.05
2022-09-13T00:39:01.255Z,8.98
2022-09-13T00:41:28.747Z,7.90
2022-09-13T00:44:01.404Z,8.60
2022-09-13T00:46:45.488Z,8.25
2022-09-13T00:49:34.059Z,8.88
2022-09-13T00:52:06.525Z,7.75
2022-09-13T00:54:40.650Z,8.55
2022-09-13T00:57:09.602Z,8.02
2022-09-13T00:59:45.712Z,8.48
2022-09-13T01:02:13.547Z,9.32
2022-09-13T01:04:42.110Z,8.10
2022-09-13T01:07:12.073Z,8.02
2022-09-13T01:09:44.640Z,7.78
2022-09-13T01:12:40.805Z,8.35
2022-09-13T01:15:08.479Z,8.27
2022-09-13T01:17:36.335Z,7.82
2022-09-13T01:20:06.444Z,7.68
2022-09-13T01:22:33.618Z,7.88
2022-09-13T01:25:15.305Z,7.95
2022-09-13T01:28:03.748Z,7.55
2022-09-13T01:30:52.187Z,6.80
2022-09-13T01:33:43.207Z,7.85
2022-09-13T01:36:33.004Z,7.82
2022-09-13T01:39:11.789Z,7.97
2022-09-13T01:41:42.863Z,8.07
2022-09-13T01:44:25.937Z,8.80
2022-09-13T01:47:03.455Z,7.50
2022-09-13T01:49:58.757Z,7.35
2022-09-13T01:52:37.614Z,8.05
2022-09-13T01:55:27.430Z,7.47
2022-09-13T01:58:17.974Z,8.43
2022-09-13T02:00:59.693Z,7.30
2022-09-13T02:03:36.828Z,8.88
2022-09-13T02:06:12.942Z,9.10
2022-09-13T02:09:11.232Z,7.88
2022-09-13T02:11:41.078Z,8.13
2022-09-13T02:14:22.920Z,8.32
2022-09-13T02:17:13.642Z,9.10
2022-09-13T02:19:56.566Z,8.63
2022-09-13T02:22:32.155Z,7.80
2022-09-13T02:25:07.214Z,8.38
2022-09-13T02:27:38.902Z,8.57
2022-09-13T02:30:09.095Z,8.98
2022-09-13T02:32:49.322Z,8.57
2022-09-13T02:35:26.581Z,8.55
2022-09-13T02:38:06.959Z,8.40
2022-09-13T02:40:49.333Z,8.32
2022-09-13T02:43:23.005Z,8.05
2022-09-13T02:46:14.408Z,9.68
2022-09-13T02:49:04.982Z,8.47
2022-09-13T02:51:57.326Z,8.80
2022-09-13T02:57:21.317Z,8.40
2022-09-13T02:59:50.003Z,8.50
2022-09-13T03:02:22.019Z,8.35
2022-09-13T03:07:18.026Z,7.75
2022-09-13T03:09:53.489Z,8.88
2022-09-13T03:12:51.372Z,8.27
2022-09-13T03:15:45.705Z,8.57
2022-09-13T03:18:34.727Z,9.32
2022-09-13T03:21:23.680Z,9.00
2022-09-13T03:24:28.497Z,7.68
2022-09-13T03:26:55.633Z,9.00
2022-09-13T03:29:35.181Z,8.63
2022-09-13T03:32:20.180Z,8.65
2022-09-13T03:35:07.942Z,8.43
2022-09-13T03:38:02.455Z,9.05
2022-09-13T03:40:51.841Z,9.32
2022-09-13T03:43:35.824Z,9.23
2022-09-13T03:46:09.811Z,8.18
2022-09-13T03:48:39.642Z,9.07
2022-09-13T03:51:08.741Z,8.75
2022-09-13T03:53:45.727Z,8.95
2022-09-13T03:56:17.990Z,8.52
2022-09-13T03:58:46.065Z,8.98
2022-09-13T04:01:13.378Z,8.35
2022-09-13T04:03:40.668Z,8.52
2022-09-13T04:06:08.837Z,8.38
2022-09-13T04:08:36.020Z,9.20
2022-09-13T04:11:03.247Z,8.98
2022-09-13T04:13:30.657Z,8.32
2022-09-13T04:16:07.582Z,8.13
2022-09-13T04:18:35.632Z,8.93
2022-09-13T04:21:04.775Z,9.18
2022-09-13T04:23:32.215Z,9.40
2022-09-13T04:26:04.708Z,9.27
2022-09-13T04:28:32.095Z,9.50
2022-09-13T04:30:59.336Z,8.98
2022-09-13T04:33:26.561Z,8.52
2022-09-13T04:36:00.626Z,8.93
2022-09-13T04:38:28.057Z,8.05
2022-09-13T04:40:56.655Z,8.95
2022-09-13T04:43:24.634Z,8.57
2022-09-13T04:45:52.464Z,8.32
2022-09-13T04:48:19.849Z,9.02
2022-09-13T04:50:47.752Z,8.23
2022-09-13T04:53:15.028Z,8.40
2022-09-13T04:55:42.282Z,9.45
2022-09-13T04:58:09.455Z,9.35
2022-09-13T05:00:36.746Z,8.45
2022-09-13T05:03:04.197Z,8.90
2022-09-13T05:05:32.654Z,9.05
2022-09-13T05:07:59.880Z,9.32
2022-09-13T05:10:27.037Z,8.95
2022-09-13T05:12:54.394Z,9.45
2022-09-13T05:15:21.624Z,8.70
2022-09-13T05:17:48.811Z,8.93
2022-09-13T05:20:16.318Z,9.57
2022-09-13T05:22:43.554Z,9.25
2022-09-13T05:25:10.705Z,8.98
2022-09-13T05:27:37.892Z,9.30
2022-09-13T05:30:05.737Z,8.60
2022-09-13T05:32:33.187Z,8.65
2022-09-13T05:35:00.511Z,8.35
2022-09-13T05:37:27.700Z,9.15
2022-09-13T05:40:10.757Z,8.85
2022-09-13T05:42:38.694Z,9.10
2022-09-13T05:45:06.860Z,8.35
2022-09-13T05:47:34.065Z,8.80
2022-09-13T05:50:10.326Z,8.60
2022-09-13T05:52:39.206Z,9.23
2022-09-13T05:55:06.667Z,8.98
2022-09-13T05:57:34.091Z,9.60
2022-09-13T06:00:01.411Z,8.82
2022-09-13T06:02:28.715Z,8.48
2022-09-13T06:04:56.287Z,8.52
2022-09-13T06:07:23.443Z,7.80
2022-09-13T06:09:50.642Z,7.38
2022-09-13T06:12:17.870Z,7.07
2022-09-13T06:14:45.111Z,8.70
2022-09-13T06:17:12.398Z,8.70
2022-09-13T06:19:39.912Z,8.20
2022-09-13T06:22:07.234Z,7.97
2022-09-13T06:24:37.640Z,7.95
2022-09-13T06:27:05.239Z,8.23
2022-09-13T06:29:32.649Z,8.05
2022-09-13T06:31:59.860Z,9.20
2022-09-13T06:34:31.126Z,7.97
2022-09-13T06:36:58.909Z,9.20
2022-09-13T06:39:26.165Z,8.55
2022-09-13T06:41:53.330Z,9.02
2022-09-13T06:44:27.843Z,9.23
2022-09-13T06:46:55.015Z,8.57
2022-09-13T06:49:22.291Z,8.73
2022-09-13T06:51:49.509Z,8.32
2022-09-13T06:54:17.203Z,8.35
2022-09-13T06:56:44.336Z,8.70
2022-09-13T06:59:11.666Z,8.18
2022-09-13T07:01:41.328Z,8.00
2022-09-13T07:04:14.548Z,8.73
2022-09-13T07:06:44.008Z,9.15
2022-09-13T07:09:13.872Z,8.18
2022-09-13T07:11:42.110Z,8.93
2022-09-13T07:14:13.303Z,8.15
2022-09-13T07:16:40.962Z,8.23
2022-09-13T07:19:16.468Z,8.95
2022-09-13T07:21:44.250Z,7.97
2022-09-13T07:24:12.013Z,8.30
2022-09-13T07:26:39.604Z,8.70
2022-09-13T07:29:09.548Z,8.40
2022-09-13T07:31:40.518Z,8.45
2022-09-13T07:34:12.337Z,8.90
2022-09-13T07:36:39.664Z,9.70
2022-09-13T07:39:09.878Z,8.40
2022-09-13T07:41:39.593Z,8.60
2022-09-13T07:44:08.054Z,7.68
2022-09-13T07:46:43.862Z,8.48
2022-09-13T07:49:12.809Z,8.18
2022-09-13T07:51:42.494Z,8.35
2022-09-13T07:54:15.151Z,8.55
2022-09-13T07:56:42.889Z,8.38
2022-09-13T07:59:17.554Z,8.57
2022-09-13T08:01:49.946Z,8.70
2022-09-13T08:04:19.965Z,8.75
2022-09-13T08:06:47.224Z,8.15
2022-09-13T08:09:15.302Z,8.10
2022-09-13T08:11:48.504Z,8.55
2022-09-13T08:14:17.543Z,8.25
2022-09-13T08:16:45.081Z,9.20
2022-09-13T08:19:17.356Z,9.07
2022-09-13T08:21:45.497Z,8.30
2022-09-13T08:24:18.477Z,8.23
2022-09-13T08:26:46.431Z,9.70
2022-09-13T08:29:14.742Z,8.75
2022-09-13T08:31:42.387Z,9.15
2022-09-13T08:34:15.207Z,8.93
2022-09-13T08:36:43.547Z,10.20
2022-09-13T08:39:13.978Z,9.18
2022-09-13T08:41:48.164Z,8.98
2022-09-13T08:44:33.377Z,8.45
2022-09-13T08:47:15.643Z,7.93
2022-09-13T08:49:50.443Z,8.52
2022-09-13T08:52:55.295Z,8.45
2022-09-13T08:55:33.438Z,9.15
2022-09-13T08:58:31.203Z,8.00
2022-09-13T09:01:08.939Z,7.90
2022-09-13T09:03:59.314Z,7.50
2022-09-13T09:06:27.264Z,8.05
2022-09-13T09:09:07.782Z,8.20
2022-09-13T09:12:09.028Z,8.30
2022-09-13T09:14:42.035Z,8.65
2022-09-13T09:17:18.248Z,8.00
2022-09-13T09:19:55.428Z,7.80
2022-09-13T09:22:27.771Z,10.20
2022-09-13T09:24:57.517Z,8.50
2022-09-13T09:27:25.256Z,8.20
2022-09-13T09:29:58.272Z,8.65
2022-09-13T09:32:47.521Z,8.23
2022-09-13T09:35:28.906Z,7.97
2022-09-13T09:38:20.865Z,7.82
2022-09-13T09:40:48.065Z,7.43
2022-09-13T09:43:33.517Z,7.65
2022-09-13T09:46:03.993Z,8.32
2022-09-13T09:48:50.274Z,8.00
2022-09-13T09:51:20.213Z,7.68
2022-09-13T09:53:52.048Z,7.63
2022-09-13T09:58:56.032Z,6.80
2022-09-13T10:01:28.064Z,7.03
2022-09-13T10:04:22.350Z,7.43
2022-09-13T10:06:51.544Z,7.22
2022-09-13T10:09:21.528Z,6.57
2022-09-13T10:11:56.476Z,6.78
2022-09-13T10:14:38.199Z,6.60
2022-09-13T10:17:05.499Z,6.53
2022-09-13T10:19:33.815Z,6.53
2022-09-13T10:22:13.064Z,7.00
2022-09-13T10:24:40.740Z,7.30
2022-09-13T10:27:25.250Z,7.18
2022-09-13T10:29:59.711Z,16.90
2022-09-13T10:32:28.905Z,7.57
2022-09-13T10:34:59.813Z,7.75
2022-09-13T10:37:31.645Z,7.05
2022-09-13T10:40:02.377Z,7.25
2022-09-13T10:42:31.313Z,7.85
2022-09-13T10:45:03.313Z,7.25
2022-09-13T10:47:48.942Z,7.28
2022-09-13T10:50:25.859Z,7.28
2022-09-13T10:52:58.903Z,7.90
2022-09-13T10:55:31.888Z,7.22
2022-09-13T10:58:02.069Z,7.85
2022-09-13T11:00:38.851Z,7.53
2022-09-13T11:03:29.657Z,7.70
2022-09-13T11:06:09.505Z,7.53
2022-09-13T11:08:57.514Z,7.95
2022-09-13T11:11:34.877Z,7.20
2022-09-13T11:14:31.261Z,7.47
2022-09-13T11:17:42.034Z,7.70
2022-09-13T11:20:33.323Z,6.80
2022-09-13T11:23:18.862Z,7.13
2022-09-13T11:26:14.703Z,7.10
2022-09-13T11:28:57.999Z,7.47
2022-09-13T11:31:37.353Z,6.90
2022-09-13T11:34:13.788Z,7.88
2022-09-13T11:37:15.446Z,7.57
2022-09-13T11:39:57.814Z,7.28
2022-09-13T11:42:43.063Z,8.07
2022-09-13T11:45:29.601Z,7.80
2022-09-13T11:48:21.675Z,7.45
2022-09-13T11:53:54.514Z,6.45
2022-09-13T11:56:34.614Z,6.65
2022-09-13T11:59:15.749Z,6.18
2022-09-13T12:01:49.635Z,6.00
2022-09-13T12:04:34.683Z,6.88
2022-09-13T12:07:10.598Z,6.43
2022-09-13T12:09:48.649Z,6.72
2022-09-13T12:12:16.228Z,7.57
2022-09-13T12:15:00.138Z,7.00
2022-09-13T12:17:29.398Z,7.20
2022-09-13T12:19:59.088Z,6.80
2022-09-13T12:22:31.076Z,7.25
2022-09-13T12:25:03.589Z,6.93
2022-09-13T12:28:02.465Z,7.10
2022-09-13T12:30:42.598Z,6.57
2022-09-13T12:33:13.553Z,6.80
2022-09-13T12:36:00.565Z,6.32
2022-09-13T12:38:31.359Z,6.75
2022-09-13T12:40:59.085Z,6.53
2022-09-13T12:43:48.135Z,7.20
2022-09-13T12:46:56.118Z,6.70
2022-09-13T12:49:41.994Z,6.38
2022-09-13T12:52:34.323Z,6.85
2022-09-13T12:55:44.872Z,7.22
2022-09-13T12:58:36.237Z,6.70
2022-09-13T13:01:21.442Z,6.65
2022-09-13T13:04:15.732Z,6.18
2022-09-13T13:07:05.436Z,6.45
2022-09-13T13:09:48.792Z,6.85
2022-09-13T13:12:48.744Z,6.80
2022-09-13T13:15:15.923Z,6.50
2022-09-13T13:17:44.596Z,6.30
2022-09-13T13:20:42.198Z,6.28
2022-09-13T13:23:46.726Z,6.72
2022-09-13T13:26:49.368Z,6.45
2022-09-13T13:29:33.168Z,6.43
2022-09-13T13:32:04.453Z,6.10
2022-09-13T13:34:43.370Z,7.00
2022-09-13T13:37:10.523Z,5.97
2022-09-13T13:39:46.597Z,6.18
2022-09-13T13:42:24.771Z,5.90
2022-09-13T13:44:56.098Z,7.43
2022-09-13T13:47:29.487Z,6.97
2022-09-13T13:50:19.837Z,6.82
2022-09-13T13:52:50.056Z,6.53
2022-09-13T13:55:41.286Z,6.47
2022-09-13T13:58:56.894Z,6.80
2022-09-13T14:01:28.384Z,5.93
2022-09-13T14:04:01.752Z,6.20
2022-09-13T14:06:49.902Z,5.88
2022-09-13T14:09:38.307Z,5.82
2022-09-13T14:12:34.501Z,6.43
2022-09-13T14:15:01.734Z,6.03
2022-09-13T14:18:03.131Z,6.65
2022-09-13T14:20:30.381Z,5.87
2022-09-13T14:23:17.635Z,6.38
2022-09-13T14:25:45.567Z,6.38
2022-09-13T14:28:23.785Z,5.88
2022-09-13T14:30:56.569Z,5.93
2022-09-13T14:33:37.451Z,6.20
2022-09-13T14:36:16.147Z,5.70
2022-09-13T14:38:55.271Z,6.07
2022-09-13T14:41:31.759Z,6.43
2022-09-13T14:44:26.354Z,5.60
2022-09-13T14:47:32.208Z,6.07
2022-09-13T14:50:13.393Z,5.55
2022-09-13T14:52:53.596Z,5.47
2022-09-13T14:55:27.681Z,6.30
2022-09-13T14:57:59.166Z,6.03
2022-09-13T15:00:27.845Z,6.07
2022-09-13T15:02:58.383Z,6.55
2022-09-13T15:05:29.777Z,6.00
2022-09-13T15:07:57.304Z,5.60
2022-09-13T15:10:28.473Z,6.05
2022-09-13T15:12:58.780Z,6.45
2022-09-13T15:15:36.800Z,5.93
2022-09-13T15:18:25.742Z,6.65
2022-09-13T15:21:14.685Z,6.20
2022-09-13T15:23:49.218Z,6.45
2022-09-13T15:26:25.731Z,6.43
2022-09-13T15:28:56.852Z,6.50
2022-09-13T15:31:29.759Z,5.68
2022-09-13T15:34:20.515Z,6.60
2022-09-13T15:37:01.782Z,7.05
2022-09-13T15:39:29.360Z,6.50
2022-09-13T15:42:00.212Z,6.22
2022-09-13T15:44:29.971Z,6.40
2022-09-13T15:47:04.664Z,6.47
2022-09-13T15:49:32.639Z,6.82
2022-09-13T15:52:01.814Z,6.15
2022-09-13T15:54:41.411Z,6.20
2022-09-13T15:57:21.484Z,6.22
2022-09-13T15:59:49.159Z,6.90
2022-09-13T16:02:21.380Z,5.93
2022-09-13T16:04:49.487Z,6.72
2022-09-13T16:07:17.502Z,6.68
2022-09-13T16:09:46.074Z,5.53
2022-09-13T16:12:13.600Z,12.98
2022-09-13T16:14:41.452Z,10.55
2022-09-13T16:17:23.662Z,8.30
2022-09-13T16:19:51.308Z,7.20
2022-09-13T16:22:18.867Z,6.43
2022-09-13T16:24:46.551Z,7.07
2022-09-13T16:27:15.327Z,7.45
2022-09-13T16:29:42.975Z,7.53
2022-09-13T16:32:10.323Z,8.43
2022-09-13T16:34:37.590Z,8.00
2022-09-13T16:37:05.109Z,7.57
2022-09-13T16:39:32.303Z,8.10
2022-09-13T16:41:59.553Z,7.80
2022-09-13T16:44:26.741Z,7.90
2022-09-13T16:46:54.016Z,7.18
2022-09-13T16:49:21.281Z,6.93
2022-09-13T16:51:48.830Z,7.03
2022-09-13T16:54:16.161Z,6.85
2022-09-13T16:56:43.517Z,6.90
2022-09-13T16:59:10.774Z,7.20
2022-09-13T17:01:38.163Z,7.30
2022-09-13T17:04:06.036Z,6.60
2022-09-13T17:06:33.247Z,8.38
2022-09-13T17:09:02.465Z,7.88
2022-09-13T17:11:32.814Z,7.65
2022-09-13T17:14:01.354Z,8.07
2022-09-13T17:16:44.539Z,7.30
2022-09-13T17:19:15.994Z,8.43
2022-09-13T17:21:44.152Z,8.05
2022-09-13T17:24:13.597Z,7.07
2022-09-13T17:26:44.969Z,7.22
2022-09-13T17:29:12.968Z,7.93
2022-09-13T17:31:40.414Z,6.82
2022-09-13T17:34:08.018Z,7.13
2022-09-13T17:36:35.182Z,6.85
2022-09-13T17:39:02.427Z,7.00
2022-09-13T17:41:30.513Z,8.13
2022-09-13T17:43:57.739Z,7.65
2022-09-13T17:46:29.049Z,7.60
2022-09-13T17:48:59.187Z,6.95
2022-09-13T17:51:29.244Z,7.25
2022-09-13T17:54:02.415Z,8.27
2022-09-13T17:56:33.843Z,8.35
2022-09-13T17:59:16.545Z,10.45
2022-09-13T18:01:46.112Z,9.40
2022-09-13T18:04:15.323Z,9.52
2022-09-13T18:06:45.355Z,9.27
2022-09-13T18:09:14.131Z,9.02
2022-09-13T18:11:42.581Z,8.98
2022-09-13T18:14:18.001Z,9.15
2022-09-13T18:16:46.154Z,9.02
2022-09-13T18:19:13.743Z,10.00
2022-09-13T18:21:41.178Z,9.95
2022-09-13T18:24:08.733Z,9.15
2022-09-13T18:26:36.847Z,8.93
2022-09-13T18:29:07.175Z,8.65
2022-09-13T18:31:35.692Z,8.80
2022-09-13T18:34:06.906Z,8.27
2022-09-13T18:36:35.208Z,8.77
2022-09-13T18:39:04.683Z,8.65
2022-09-13T18:41:35.414Z,8.27
2022-09-13T18:44:05.132Z,8.38
2022-09-13T18:46:34.377Z,7.55
2022-09-13T18:49:03.553Z,8.35
2022-09-13T18:51:35.593Z,8.95
2022-09-13T18:54:06.629Z,8.73
2022-09-13T18:56:34.750Z,8.07
2022-09-13T18:59:04.308Z,8.55
2022-09-13T19:01:33.981Z,8.48
2022-09-13T19:04:16.531Z,9.02
2022-09-13T19:06:49.749Z,8.27
2022-09-13T19:09:20.082Z,8.13
2022-09-13T19:11:49.893Z,8.18
2022-09-13T19:14:18.557Z,8.15
2022-09-13T19:16:46.457Z,7.70
2022-09-13T19:19:14.192Z,7.63
2022-09-13T19:21:42.490Z,7.45
2022-09-13T19:24:18.275Z,7.28
2022-09-13T19:26:48.658Z,7.65
2022-09-13T19:29:19.852Z,7.40
2022-09-13T19:31:50.233Z,7.40
2022-09-13T19:34:20.064Z,7.72
2022-09-13T19:36:50.691Z,7.78
2022-09-13T19:39:19.342Z,8.05
2022-09-13T19:41:46.717Z,7.60
2022-09-13T19:44:15.234Z,8.60
2022-09-13T19:46:43.979Z,8.25
2022-09-13T19:49:17.510Z,8.30
2022-09-13T19:51:51.350Z,8.52
2022-09-13T19:54:19.717Z,9.20
2022-09-13T19:56:47.699Z,9.73
2022-09-13T19:59:17.630Z,10.43
2022-09-13T20:01:46.820Z,11.07
2022-09-13T20:04:16.850Z,14.38
2022-09-13T20:06:46.530Z,12.25
2022-09-13T20:09:17.463Z,11.43
2022-09-13T20:11:45.889Z,10.05
2022-09-13T20:14:14.970Z,9.20
2022-09-13T20:16:43.345Z,9.13
2022-09-13T20:19:39.740Z,9.55
2022-09-13T20:22:07.435Z,8.52
2022-09-13T20:24:34.713Z,7.38
2022-09-13T20:27:01.952Z,7.80
2022-09-13T20:29:29.524Z,7.35
2022-09-13T20:31:57.229Z,7.45
2022-09-13T20:34:24.554Z,7.70
2022-09-13T20:36:51.828Z,7.78
2022-09-13T20:39:19.060Z,7.72
2022-09-13T20:41:47.394Z,8.68
2022-09-13T20:44:14.980Z,8.27
2022-09-13T20:46:43.342Z,8.45
2022-09-13T20:49:11.782Z,9.23
2022-09-13T20:51:39.257Z,9.02
2022-09-13T20:54:06.942Z,9.05
2022-09-13T20:56:35.508Z,8.05
2022-09-13T20:59:03.886Z,8.63
2022-09-13T21:01:32.862Z,8.50
2022-09-13T21:04:00.877Z,8.43
2022-09-13T21:06:30.705Z,9.82
2022-09-13T21:09:02.170Z,9.30
2022-09-13T21:11:35.486Z,8.27
2022-09-13T21:14:05.770Z,9.15
2022-09-13T21:16:36.046Z,8.32
2022-09-13T21:19:03.899Z,7.93
2022-09-13T21:21:34.872Z,8.43
2022-09-13T21:24:08.789Z,8.63
2022-09-13T21:26:37.161Z,8.50
2022-09-13T21:29:04.603Z,8.35
2022-09-13T21:31:34.214Z,9.45
2022-09-13T21:34:04.309Z,9.52
2022-09-13T21:36:34.757Z,8.82
2022-09-13T21:39:02.471Z,9.95
2022-09-13T21:41:30.456Z,9.38
2022-09-13T21:43:58.518Z,9.07
2022-09-13T21:46:28.682Z,8.60
2022-09-13T21:48:59.017Z,8.82
2022-09-13T21:51:28.257Z,9.10
2022-09-13T21:53:59.211Z,9.00
2022-09-13T21:56:32.372Z,9.10
2022-09-13T21:59:02.699Z,9.07
2022-09-13T22:01:32.691Z,8.90
2022-09-13T22:04:01.456Z,8.60
2022-09-13T22:06:33.592Z,8.63
2022-09-13T22:09:08.451Z,8.23
2022-09-13T22:11:40.681Z,9.25
2022-09-13T22:14:11.032Z,7.97
2022-09-13T22:16:40.313Z,8.75
2022-09-13T22:19:14.267Z,8.35
2022-09-13T22:21:45.431Z,9.02
2022-09-13T22:24:21.272Z,7.87
2022-09-13T22:26:50.105Z,8.50
2022-09-13T22:29:17.931Z,8.13
2022-09-13T22:31:47.186Z,7.93
2022-09-13T22:34:21.685Z,8.57
2022-09-13T22:36:49.022Z,8.30
2022-09-13T22:39:17.402Z,8.15
2022-09-13T22:41:45.478Z,7.88
2022-09-13T22:44:13.180Z,7.80
2022-09-13T22:46:43.354Z,8.52
2022-09-13T22:49:16.057Z,7.85
2022-09-13T22:51:45.334Z,7.85
2022-09-13T22:54:14.158Z,9.30
2022-09-13T22:56:41.850Z,8.40
2022-09-13T22:59:17.776Z,8.00
2022-09-13T23:01:45.607Z,8.45
2022-09-13T23:04:13.242Z,8.63
2022-09-13T23:06:40.604Z,8.30
2022-09-13T23:09:08.720Z,7.85
2022-09-13T23:11:38.850Z,8.32
2022-09-13T23:14:10.343Z,8.20
2022-09-13T23:16:45.898Z,8.45
2022-09-13T23:19:14.116Z,8.00
2022-09-13T23:21:42.866Z,8.10
2022-09-13T23:24:18.437Z,8.00
2022-09-13T23:26:46.748Z,8.15
2022-09-13T23:29:17.323Z,7.70
2022-09-13T23:31:47.006Z,7.78
2022-09-13T23:34:15.236Z,7.82
2022-09-13T23:36:44.329Z,10.75
2022-09-13T23:39:18.015Z,9.75
2022-09-13T23:41:47.170Z,8.85
2022-09-13T23:44:14.603Z,9.38
2022-09-13T23:46:42.147Z,8.13
2022-09-13T23:49:09.456Z,8.00
2022-09-13T23:51:36.754Z,8.27
2022-09-13T23:54:04.802Z,7.95
2022-09-13T23:56:33.219Z,7.97
2022-09-13T23:59:02.037Z,7.68
